TimeEST,TemperatureF,Dew PointF,Humidity,Sea Level PressureIn,VisibilityMPH,Wind Direction,Wind SpeedMPH,Gust SpeedMPH,PrecipitationIn,Events,Conditions,WindDirDegrees,DateUTC
12:53 AM,57.0,43.0,59,30.02,10.0,NNE,9.2,-,N/A,,Mostly Cloudy,30,2012-11-08 05:53:00
1:53 AM,55.9,42.1,60,30.03,10.0,Calm,Calm,-,N/A,,Scattered Clouds,0,2012-11-08 06:53:00
2:53 AM,55.0,39.9,57,30.04,10.0,NE,4.6,-,N/A,,Mostly Cloudy,40,2012-11-08 07:53:00
3:53 AM,54.0,37.9,55,30.04,10.0,North,8.1,-,N/A,,Scattered Clouds,10,2012-11-08 08:53:00
4:53 AM,52.0,37.9,59,30.06,10.0,NNE,5.8,-,N/A,,Partly Cloudy,30,2012-11-08 09:53:00
5:53 AM,50.0,39.2,66,30.08,10.0,North,3.5,-,N/A,,Clear,10,2012-11-08 10:53:00
6:53 AM,51.1,39.9,66,30.11,10.0,North,6.9,-,N/A,,Partly Cloudy,10,2012-11-08 11:53:00
7:53 AM,53.1,39.9,61,30.14,10.0,North,10.4,-,N/A,,Partly Cloudy,10,2012-11-08 12:53:00
8:53 AM,57.0,39.0,51,30.15,10.0,North,11.5,19.6,N/A,,Partly Cloudy,10,2012-11-08 13:53:00
9:53 AM,60.1,37.9,44,30.17,10.0,North,9.2,-,N/A,,Clear,360,2012-11-08 14:53:00
10:53 AM,62.1,39.0,43,30.17,10.0,NNW,6.9,17.3,N/A,,Clear,340,2012-11-08 15:53:00
11:53 AM,64.9,39.0,39,30.16,10.0,NW,5.8,18.4,N/A,,Clear,320,2012-11-08 16:53:00
12:53 PM,66.0,34.0,30,30.13,10.0,NW,6.9,18.4,N/A,,Clear,320,2012-11-08 17:53:00
1:53 PM,66.9,33.1,28,30.12,10.0,Variable,4.6,19.6,N/A,,Clear,0,2012-11-08 18:53:00
2:53 PM,66.0,33.1,29,30.11,10.0,NNW,6.9,-,N/A,,Partly Cloudy,340,2012-11-08 19:53:00
3:53 PM,64.0,37.0,37,30.11,10.0,WNW,10.4,-,N/A,,Partly Cloudy,300,2012-11-08 20:53:00
4:53 PM,63.0,39.0,41,30.12,10.0,NW,8.1,-,N/A,,Partly Cloudy,320,2012-11-08 21:53:00
5:53 PM,59.0,39.9,49,30.14,10.0,NW,6.9,-,N/A,,Partly Cloudy,320,2012-11-08 22:53:00
6:53 PM,57.0,41.0,55,30.15,10.0,North,4.6,-,N/A,,Clear,350,2012-11-08 23:53:00
7:53 PM,55.9,44.1,64,30.17,10.0,North,4.6,-,N/A,,Clear,350,2012-11-09 00:53:00
8:53 PM,55.9,44.1,64,30.18,10.0,North,6.9,-,N/A,,Clear,10,2012-11-09 01:53:00
9:53 PM,55.0,45.0,69,30.19,10.0,North,5.8,-,N/A,,Clear,360,2012-11-09 02:53:00
10:53 PM,55.0,46.0,72,30.20,10.0,Calm,Calm,-,N/A,,Clear,0,2012-11-09 03:53:00
11:53 PM,54.0,46.9,77,30.19,10.0,Calm,Calm,-,N/A,,Clear,0,2012-11-09 04:53:00